Tigran Martirosyan — UBGF7 — position and weather

sailwx.info

Track history (hours):
 
Tides and Currents Weather Stations Pressure Air Temp Water Temp Dewpoint Dewpoint Depression Visibility Wind Speed Wind Dir Waves Ship Positions

Tigran Martirosyan

Last reported at 2017-Oct-22 20:50 UTC. Time now 2017-Oct-22 21:17 UTC.
Position N 44°36' E 037°39'.

Length 100 m; draft 4.4 m.

Type: Tanker. MMSI: 273332610.

Date/timePositionNaut miles runAvg speedWind from/ knotsBaromVisibWave heightAir tempDewpointWater temp
2017-Oct-22 20:50N 44°36' E 037°39'4 8.7
2017-Oct-22 20:20N 44°37' E 037°45'3 9.2
2017-Oct-22 19:59N 44°39' E 037°49'3 6.1
2017-Oct-22 19:29N 44°41' E 037°52'0 0.3
2017-Oct-22 18:56N 44°41' E 037°52'2 4.1
2017-Oct-22 18:29N 44°43' E 037°50'0 0.3
2017-Oct-22 17:59N 44°43' E 037°51'0 0.0
2017-Oct-22 17:29N 44°43' E 037°51'0 0.0
2017-Oct-22 16:59N 44°43' E 037°51'0 0.0
2017-Oct-22 16:29N 44°43' E 037°51'0 0.0
2017-Oct-22 15:59N 44°43' E 037°51'0 0.0
2017-Oct-22 15:29N 44°43' E 037°51'0 0.0
2017-Oct-22 14:59N 44°43' E 037°51'0 0.0
2017-Oct-22 14:26N 44°43' E 037°51'0 0.0
2017-Oct-22 13:59N 44°43' E 037°51'0 0.0
2017-Oct-22 13:29N 44°43' E 037°51'2 0.4
2017-Oct-22 08:29N 44°41' E 037°49'0 0.0
2017-Oct-22 07:53N 44°41' E 037°49'0 0.0
2017-Oct-22 07:29N 44°41' E 037°49'0 0.0
2017-Oct-22 06:59N 44°41' E 037°49'0 0.0
2017-Oct-22 06:29N 44°41' E 037°49'0 0.0
2017-Oct-22 05:59N 44°41' E 037°49'0 0.1
2017-Oct-22 05:29N 44°41' E 037°49'0 0.0
2017-Oct-22 04:59N 44°41' E 037°49'0 0.0
2017-Oct-22 04:29N 44°41' E 037°49'0 0.0
2017-Oct-22 03:59N 44°41' E 037°49'0 0.0
2017-Oct-22 03:29N 44°41' E 037°49'0 0.0
2017-Oct-22 02:59N 44°41' E 037°49'0 0.0
2017-Oct-22 02:29N 44°41' E 037°49'0 0.0
2017-Oct-22 01:59N 44°41' E 037°49'0 0.0
2017-Oct-22 01:29N 44°41' E 037°49'0 0.0
2017-Oct-22 00:59N 44°41' E 037°49'0 0.0
2017-Oct-22 00:29N 44°41' E 037°49'0 0.1
2017-Oct-21 23:59N 44°41' E 037°49'0 0.1
2017-Oct-21 23:29N 44°41' E 037°49'0 0.0
2017-Oct-21 22:59N 44°41' E 037°49'0 0.0
2017-Oct-21 22:29N 44°41' E 037°49'0 0.1
2017-Oct-21 21:59N 44°41' E 037°49'0 0.0
2017-Oct-21 21:29N 44°41' E 037°49'0 0.0
2017-Oct-21 20:59N 44°41' E 037°49'0 0.0
2017-Oct-21 20:23N 44°41' E 037°49'0 0.1
2017-Oct-21 19:56N 44°41' E 037°49'0 0.0
2017-Oct-21 19:29N 44°41' E 037°49'0 0.0
2017-Oct-21 18:59N 44°41' E 037°49'0 0.1
2017-Oct-21 18:29N 44°41' E 037°49'0 0.0
2017-Oct-21 17:59N 44°41' E 037°49'0 0.1
2017-Oct-21 17:29N 44°41' E 037°49'0 0.1
2017-Oct-21 16:59N 44°41' E 037°49'0 0.0
2017-Oct-21 16:29N 44°41' E 037°49'0 0.1
2017-Oct-21 15:56N 44°41' E 037°49'0 0.1
2017-Oct-21 15:29N 44°41' E 037°49'0 0.0
2017-Oct-21 14:59N 44°41' E 037°49'0 0.0
2017-Oct-21 13:59N 44°41' E 037°49'1 1.1
2017-Oct-21 13:29N 44°41' E 037°50'4 8.1
2017-Oct-21 12:59N 44°37' E 037°53'3 5.1
2017-Oct-21 12:29N 44°35' E 037°54'0 0.1
2017-Oct-21 11:56N 44°35' E 037°54'0 0.0
2017-Oct-21 11:29N 44°35' E 037°54'0 0.0
2017-Oct-21 10:50N 44°35' E 037°54'0 0.0
2017-Oct-21 10:29N 44°35' E 037°54'0 0.0
2017-Oct-21 09:59N 44°35' E 037°54'0 0.0
2017-Oct-21 09:29N 44°35' E 037°54'0 0.0
2017-Oct-21 08:59N 44°35' E 037°54'0 0.0
2017-Oct-21 08:29N 44°35' E 037°54'0 0.0
2017-Oct-21 07:59N 44°35' E 037°54'0 0.0
2017-Oct-21 07:29N 44°35' E 037°54'0 0.0
2017-Oct-21 06:59N 44°35' E 037°54'0 0.1
2017-Oct-21 06:29N 44°35' E 037°54'0 0.1
2017-Oct-21 05:59N 44°35' E 037°54'0 0.1
2017-Oct-21 05:29N 44°35' E 037°54'0 0.0
2017-Oct-21 04:47N 44°35' E 037°54'0 0.0
2017-Oct-21 03:35N 44°35' E 037°54'0 0.9
2017-Oct-21 03:23N 44°35' E 037°53'1 2.7
2017-Oct-21 02:59N 44°36' E 037°53'4 7.0
2017-Oct-21 02:29N 44°39' E 037°51'2 4.5
2017-Oct-21 01:59N 44°41' E 037°49'0 0.0
2017-Oct-21 01:29N 44°41' E 037°49'0 0.0
2017-Oct-21 00:59N 44°41' E 037°49'0 0.0
2017-Oct-21 00:29N 44°41' E 037°49'0 0.0
2017-Oct-20 23:59N 44°41' E 037°49'0 0.0
2017-Oct-20 23:29N 44°41' E 037°49'0 0.0
2017-Oct-20 22:59N 44°41' E 037°49'0 0.0
2017-Oct-20 22:29N 44°41' E 037°49'0 0.0
2017-Oct-20 21:59N 44°41' E 037°49'0 0.0
2017-Oct-20 21:29N 44°41' E 037°49'0 0.1
2017-Oct-20 20:59N 44°41' E 037°49'0 0.0
2017-Oct-20 20:29N 44°41' E 037°49'0 0.0
2017-Oct-20 19:59N 44°41' E 037°49'0 0.0
2017-Oct-20 19:29N 44°41' E 037°49'0 0.0
2017-Oct-20 18:59N 44°41' E 037°49'0 0.0
2017-Oct-20 18:29N 44°41' E 037°49'0 0.0
2017-Oct-20 17:59N 44°41' E 037°49'0 0.0
2017-Oct-20 17:29N 44°41' E 037°49'0 0.0
2017-Oct-20 16:59N 44°41' E 037°49'0 0.1
2017-Oct-20 16:29N 44°41' E 037°49'0 0.1
2017-Oct-20 15:59N 44°41' E 037°49'0 0.1
2017-Oct-20 15:29N 44°41' E 037°49'0 0.0
2017-Oct-20 14:59N 44°41' E 037°49'0 0.0
2017-Oct-20 13:59N 44°41' E 037°49'0 0.0
2017-Oct-20 13:29N 44°41' E 037°49'0 0.0
2017-Oct-20 12:59N 44°41' E 037°49'0 0.0
2017-Oct-20 12:29N 44°41' E 037°49'0 0.0
2017-Oct-20 11:59N 44°41' E 037°49'0 0.0
2017-Oct-20 11:29N 44°41' E 037°49'0 0.0
2017-Oct-20 10:59N 44°41' E 037°49'0 0.0
2017-Oct-20 10:29N 44°41' E 037°49'0 0.0
2017-Oct-20 09:59N 44°41' E 037°49'0 0.0
2017-Oct-20 09:29N 44°41' E 037°49'0 0.0
2017-Oct-20 08:59N 44°41' E 037°49'0 0.0
2017-Oct-20 08:29N 44°41' E 037°49'0 0.1
2017-Oct-20 07:59N 44°41' E 037°49'0 0.1
2017-Oct-20 07:29N 44°41' E 037°49'0 0.1
2017-Oct-20 06:59N 44°41' E 037°49'0 0.0
2017-Oct-20 06:29N 44°41' E 037°49'0 0.0
2017-Oct-20 05:59N 44°41' E 037°49'0 0.0
2017-Oct-20 05:29N 44°41' E 037°49'0 0.0
2017-Oct-20 04:59N 44°41' E 037°49'0 0.0
2017-Oct-20 04:29N 44°41' E 037°49'0 0.0
2017-Oct-20 03:59N 44°41' E 037°49'0 0.0
2017-Oct-20 03:29N 44°41' E 037°49'0 0.0
2017-Oct-20 02:59N 44°41' E 037°49'0 0.0
2017-Oct-20 02:29N 44°41' E 037°49'0 0.0
2017-Oct-20 01:59N 44°41' E 037°49'0 0.0
2017-Oct-20 01:29N 44°41' E 037°49'0 0.0
2017-Oct-20 00:56N 44°41' E 037°49'0 0.0
2017-Oct-20 00:29N 44°41' E 037°49'0 0.0
2017-Oct-19 23:59N 44°41' E 037°49'0 0.0
2017-Oct-19 23:29N 44°41' E 037°49'0 0.0
2017-Oct-19 22:59N 44°41' E 037°49'0 0.0
2017-Oct-19 22:29N 44°41' E 037°49'0 0.0
2017-Oct-19 21:59N 44°41' E 037°49'0 0.0
2017-Oct-19 21:29N 44°41' E 037°49'0 0.0
2017-Oct-19 20:59N 44°41' E 037°49'0 0.0
2017-Oct-19 20:29N 44°41' E 037°49'0 0.0
2017-Oct-19 19:59N 44°41' E 037°49'0 0.0
2017-Oct-19 19:29N 44°41' E 037°49'0 0.0
2017-Oct-19 18:59N 44°41' E 037°49'0 0.1
2017-Oct-19 18:26N 44°41' E 037°49'0 0.1
2017-Oct-19 17:59N 44°41' E 037°49'0 0.0
2017-Oct-19 17:29N 44°41' E 037°49'0 0.0
2017-Oct-19 16:59N 44°41' E 037°49'0 0.0
2017-Oct-19 16:29N 44°41' E 037°49'0 0.1
2017-Oct-19 15:59N 44°41' E 037°49'1 1.3
2017-Oct-19 15:29N 44°42' E 037°49'2 4.6
2017-Oct-19 14:59N 44°43' E 037°47'0 0.3
2017-Oct-19 14:29N 44°44' E 037°47'0 0.0
2017-Oct-19 13:59N 44°44' E 037°47'0 0.0
2017-Oct-19 13:26N 44°44' E 037°47'0 0.0
2017-Oct-19 12:59N 44°44' E 037°47'0 0.0
2017-Oct-19 12:29N 44°44' E 037°47'0 0.0
2017-Oct-19 11:56N 44°44' E 037°47'0 0.0
2017-Oct-19 11:29N 44°44' E 037°47'0 0.3
2017-Oct-19 10:59N 44°43' E 037°47'1 1.9
2017-Oct-19 10:29N 44°43' E 037°48'2 4.3
2017-Oct-19 09:59N 44°41' E 037°49'0 0.2
2017-Oct-19 09:29N 44°41' E 037°49'0 0.0
2017-Oct-19 08:56N 44°41' E 037°49'0 0.0
2017-Oct-19 08:29N 44°41' E 037°49'0 0.0
2017-Oct-19 07:59N 44°41' E 037°49'0 0.0
2017-Oct-19 07:29N 44°41' E 037°49'0 0.0
2017-Oct-19 06:59N 44°41' E 037°49'0 0.0
2017-Oct-19 06:29N 44°41' E 037°49'0 0.0
2017-Oct-19 05:59N 44°41' E 037°49'0 0.0
2017-Oct-19 05:29N 44°41' E 037°49'0 0.0
2017-Oct-19 04:59N 44°41' E 037°49'0 0.0
2017-Oct-19 04:29N 44°41' E 037°49'0 0.0
2017-Oct-19 03:29N 44°41' E 037°49'0 0.0
2017-Oct-19 02:59N 44°41' E 037°49'0 0.0
2017-Oct-19 02:29N 44°41' E 037°49'0 0.0
2017-Oct-19 01:59N 44°41' E 037°49'0 0.0
2017-Oct-19 01:29N 44°41' E 037°49'0 0.0
2017-Oct-19 00:59N 44°41' E 037°49'0 0.0
2017-Oct-19 00:29N 44°41' E 037°49'0 0.0
2017-Oct-18 23:26N 44°41' E 037°49'0 0.0
2017-Oct-18 22:59N 44°41' E 037°49'0 0.0
2017-Oct-18 22:29N 44°41' E 037°49'0 0.0
2017-Oct-18 21:59N 44°41' E 037°49'0 0.0
2017-Oct-18 21:29N 44°41' E 037°49'0 0.0
2017-Oct-18 20:59N 44°41' E 037°49'0 0.0
2017-Oct-18 20:29N 44°41' E 037°49'0 0.0
2017-Oct-18 19:59N 44°41' E 037°49'0 0.0
2017-Oct-18 19:26N 44°41' E 037°49'0 0.0
2017-Oct-18 18:59N 44°41' E 037°49'0 0.0
2017-Oct-18 18:29N 44°41' E 037°49'0 0.0
2017-Oct-18 17:59N 44°41' E 037°49'0 0.0
2017-Oct-18 17:29N 44°41' E 037°49'0 0.0
2017-Oct-18 16:59N 44°41' E 037°49'0 0.0
2017-Oct-18 16:29N 44°41' E 037°49'0 0.0
2017-Oct-18 15:59N 44°41' E 037°49'0 0.0
2017-Oct-18 15:29N 44°41' E 037°49'0 0.0
2017-Oct-18 13:59N 44°41' E 037°49'0 0.0
2017-Oct-18 13:29N 44°41' E 037°49'0 0.0
2017-Oct-18 12:59N 44°41' E 037°49'0 0.0
2017-Oct-18 12:29N 44°41' E 037°49'0 0.0
2017-Oct-18 11:59N 44°41' E 037°49'0 0.0
2017-Oct-18 11:29N 44°41' E 037°49'0 0.0
2017-Oct-18 10:59N 44°41' E 037°49'0 0.0
2017-Oct-18 10:29N 44°41' E 037°49'0 0.0
2017-Oct-18 09:59N 44°41' E 037°49'0 0.0
2017-Oct-18 09:29N 44°41' E 037°49'0 0.0
2017-Oct-18 08:59N 44°41' E 037°49'0 0.0
2017-Oct-18 08:29N 44°41' E 037°49'0 0.0
2017-Oct-18 07:59N 44°41' E 037°49'0 0.0
2017-Oct-18 07:29N 44°41' E 037°49'0 0.0
2017-Oct-18 06:59N 44°41' E 037°49'0 0.0
2017-Oct-18 06:29N 44°41' E 037°49'0 0.0
2017-Oct-18 05:59N 44°41' E 037°49'0 0.0
2017-Oct-18 05:29N 44°41' E 037°49'0 0.0
2017-Oct-18 04:59N 44°41' E 037°49'0 0.0
2017-Oct-18 04:29N 44°41' E 037°49'0 0.0
2017-Oct-18 03:59N 44°41' E 037°49'0 0.0
2017-Oct-18 03:29N 44°41' E 037°49'0 0.0
2017-Oct-18 02:59N 44°41' E 037°49'0 0.0
2017-Oct-18 02:29N 44°41' E 037°49'0 0.0
2017-Oct-18 01:59N 44°41' E 037°49'0 0.0
2017-Oct-18 01:29N 44°41' E 037°49'0 0.0
2017-Oct-18 00:59N 44°41' E 037°49'0 0.0
2017-Oct-18 00:29N 44°41' E 037°49'0 0.0
2017-Oct-17 23:59N 44°41' E 037°49'0 0.0
2017-Oct-17 23:29N 44°41' E 037°49'0 0.0
2017-Oct-17 22:59N 44°41' E 037°49'0 0.0
2017-Oct-17 22:29N 44°41' E 037°49'0 0.0
2017-Oct-17 21:59N 44°41' E 037°49'0 0.0
2017-Oct-17 21:29N 44°41' E 037°49'0 0.0
2017-Oct-17 20:56N 44°41' E 037°49'0 0.0
2017-Oct-17 20:29N 44°41' E 037°49'0 0.0
2017-Oct-17 19:59N 44°41' E 037°49'0 0.0
2017-Oct-17 19:29N 44°41' E 037°49'0 0.0
2017-Oct-17 18:59N 44°41' E 037°49'0 0.0
2017-Oct-17 18:29N 44°41' E 037°49'0 0.0
2017-Oct-17 17:59N 44°41' E 037°49'0 0.0
2017-Oct-17 17:29N 44°41' E 037°49'0 0.0
2017-Oct-17 16:59N 44°41' E 037°49'0 0.0
2017-Oct-17 16:29N 44°41' E 037°49'0 0.0
2017-Oct-17 15:59N 44°41' E 037°49'0 0.0
2017-Oct-17 15:29N 44°41' E 037°49'0 0.0
2017-Oct-17 14:59N 44°41' E 037°49'0 0.0
2017-Oct-17 14:29N 44°41' E 037°49'0 0.0
2017-Oct-17 13:59N 44°41' E 037°49'0 0.0
2017-Oct-17 13:29N 44°41' E 037°49'0 0.0
2017-Oct-17 12:59N 44°41' E 037°49'0 0.0
2017-Oct-17 12:29N 44°41' E 037°49'0 0.0
2017-Oct-17 11:59N 44°41' E 037°49'0 0.0
2017-Oct-17 11:29N 44°41' E 037°49'0 0.0
2017-Oct-17 10:59N 44°41' E 037°49'0 0.0
2017-Oct-17 10:29N 44°41' E 037°49'0 0.0
2017-Oct-17 09:59N 44°41' E 037°49'0 0.0
2017-Oct-17 09:29N 44°41' E 037°49'0 0.0
2017-Oct-17 08:59N 44°41' E 037°49'0 0.1
2017-Oct-17 08:29N 44°41' E 037°49'0 0.0
2017-Oct-17 07:59N 44°41' E 037°49'0 0.0
2017-Oct-17 07:29N 44°41' E 037°49'0 0.1
2017-Oct-17 06:59N 44°41' E 037°49'0 0.1
2017-Oct-17 06:29N 44°41' E 037°49'0 0.1
2017-Oct-17 05:59N 44°41' E 037°49'0 0.0
2017-Oct-17 05:29N 44°41' E 037°49'0 0.0
2017-Oct-17 04:59N 44°41' E 037°49'0 0.0
2017-Oct-17 04:29N 44°41' E 037°49'0 0.0
2017-Oct-17 03:59N 44°41' E 037°49'0 0.0
2017-Oct-17 03:14N 44°41' E 037°49'0 0.0
2017-Oct-17 02:59N 44°41' E 037°49'0 0.0
2017-Oct-17 02:29N 44°41' E 037°49'0 0.0
2017-Oct-17 01:59N 44°41' E 037°49'0 0.0
2017-Oct-17 01:29N 44°41' E 037°49'0 0.0
2017-Oct-17 00:56N 44°41' E 037°49'0 0.0
2017-Oct-17 00:29N 44°41' E 037°49'0 0.0
2017-Oct-16 23:59N 44°41' E 037°49'0 0.0
2017-Oct-16 23:29N 44°41' E 037°49'0 0.0
2017-Oct-16 22:59N 44°41' E 037°49'0 0.0
2017-Oct-16 22:29N 44°41' E 037°49'0 0.1
2017-Oct-16 21:59N 44°41' E 037°49'0 0.0
2017-Oct-16 21:29N 44°41' E 037°49'0 0.0
2017-Oct-16 20:56N 44°41' E 037°49'0 0.0
2017-Oct-16 20:29N 44°41' E 037°49'0 0.0
2017-Oct-16 19:59N 44°41' E 037°49'0 0.0
2017-Oct-16 19:29N 44°41' E 037°49'0 0.1
2017-Oct-16 18:59N 44°41' E 037°49'1 1.3
2017-Oct-16 18:08N 44°42' E 037°50'1 5.6
2017-Oct-16 17:59N 44°43' E 037°50'0 0.6
2017-Oct-16 17:29N 44°43' E 037°51'0 0.0
2017-Oct-16 16:59N 44°43' E 037°51'0 0.0
2017-Oct-16 16:29N 44°43' E 037°51'0 0.0
2017-Oct-16 15:59N 44°43' E 037°51'0 0.0
2017-Oct-16 15:29N 44°43' E 037°51'0 0.0
2017-Oct-16 14:59N 44°43' E 037°51'0 0.0
2017-Oct-16 13:59N 44°43' E 037°51'0 0.0
2017-Oct-16 13:29N 44°43' E 037°51'0 0.0
2017-Oct-16 12:59N 44°43' E 037°51'0 0.0
2017-Oct-16 12:29N 44°43' E 037°51'0 0.0
2017-Oct-16 11:59N 44°43' E 037°51'0 0.0
2017-Oct-16 11:29N 44°43' E 037°51'0 0.0
2017-Oct-16 10:59N 44°43' E 037°51'0 0.0
2017-Oct-16 10:29N 44°43' E 037°51'0 0.0
2017-Oct-16 09:59N 44°43' E 037°51'0 0.0
2017-Oct-16 09:29N 44°43' E 037°51'0 0.0
2017-Oct-16 08:56N 44°43' E 037°51'0 0.0
2017-Oct-16 08:29N 44°43' E 037°51'0 0.7
2017-Oct-16 07:59N 44°43' E 037°50'2 3.0
2017-Oct-16 07:29N 44°41' E 037°49'0 0.1
2017-Oct-16 06:59N 44°41' E 037°49'0 0.0
2017-Oct-16 06:29N 44°41' E 037°49'0 0.1
2017-Oct-16 05:59N 44°41' E 037°49'0 0.0
2017-Oct-16 05:29N 44°41' E 037°49'0 0.0
2017-Oct-16 04:59N 44°41' E 037°49'0 0.0
2017-Oct-16 04:29N 44°41' E 037°49'0 0.0
2017-Oct-16 03:59N 44°41' E 037°49'0 0.0
2017-Oct-16 03:29N 44°41' E 037°49'0 0.0
2017-Oct-16 02:59N 44°41' E 037°49'0 0.0
2017-Oct-16 02:29N 44°41' E 037°49'0 0.0
2017-Oct-16 01:59N 44°41' E 037°49'0 0.0
2017-Oct-16 01:29N 44°41' E 037°49'0 0.0
2017-Oct-16 00:59N 44°41' E 037°49'0 0.0
2017-Oct-16 00:29N 44°41' E 037°49'0 0.1
2017-Oct-15 23:59N 44°41' E 037°49'0 0.0
2017-Oct-15 23:29N 44°41' E 037°49'0 0.0
2017-Oct-15 22:59N 44°41' E 037°49'0 0.0
2017-Oct-15 22:29N 44°41' E 037°49'0 0.0
2017-Oct-15 21:59N 44°41' E 037°49'0 0.0
2017-Oct-15 21:29N 44°41' E 037°49'0 0.2
2017-Oct-15 20:59N 44°41' E 037°49'0 0.1
2017-Oct-15 20:29N 44°41' E 037°49'0 0.1
2017-Oct-15 19:59N 44°41' E 037°49'0 0.1
2017-Oct-15 19:29N 44°41' E 037°49'0 0.1
2017-Oct-15 18:59N 44°41' E 037°49'0 0.0
2017-Oct-15 18:29N 44°41' E 037°49'0 0.1
2017-Oct-15 17:59N 44°41' E 037°49'0 0.0
2017-Oct-15 17:29N 44°41' E 037°49'0 0.0
2017-Oct-15 16:59N 44°41' E 037°49'0 0.0
2017-Oct-15 16:29N 44°41' E 037°49'0 0.0
2017-Oct-15 15:59N 44°41' E 037°49'0 0.0
2017-Oct-15 15:29N 44°41' E 037°49'0 0.0
2017-Oct-15 14:59N 44°41' E 037°49'0 0.0
2017-Oct-15 13:59N 44°41' E 037°49'0 0.0
2017-Oct-15 13:29N 44°41' E 037°49'0 0.0
2017-Oct-15 12:59N 44°41' E 037°49'0 0.0
2017-Oct-15 12:29N 44°41' E 037°49'0 0.0
2017-Oct-15 11:59N 44°41' E 037°49'0 0.0
2017-Oct-15 11:29N 44°41' E 037°49'0 0.0
2017-Oct-15 10:59N 44°41' E 037°49'0 0.1
2017-Oct-15 10:29N 44°41' E 037°49'0 0.0
2017-Oct-15 09:59N 44°41' E 037°49'0 0.0
2017-Oct-15 09:29N 44°41' E 037°49'0 0.0
2017-Oct-15 08:59N 44°41' E 037°49'0 0.1
2017-Oct-15 08:26N 44°41' E 037°49'0 0.0
2017-Oct-15 07:59N 44°41' E 037°49'0 0.0
2017-Oct-15 07:29N 44°41' E 037°49'0 0.0
2017-Oct-15 06:59N 44°41' E 037°49'0 0.0
2017-Oct-15 06:29N 44°41' E 037°49'0 0.0
2017-Oct-15 05:59N 44°41' E 037°49'0 0.1
2017-Oct-15 05:29N 44°41' E 037°49'0 0.0
2017-Oct-15 04:59N 44°41' E 037°49'0 0.0
2017-Oct-15 04:29N 44°41' E 037°49'0 0.0
2017-Oct-15 03:59N 44°41' E 037°49'0 0.0
2017-Oct-15 03:29N 44°41' E 037°49'0 0.0
2017-Oct-15 02:59N 44°41' E 037°49'0 0.0
2017-Oct-15 02:29N 44°41' E 037°49'0 0.0
2017-Oct-15 01:59N 44°41' E 037°49'0 0.0
2017-Oct-15 01:29N 44°41' E 037°49'0 0.0
2017-Oct-15 00:59N 44°41' E 037°49'0 0.0
2017-Oct-15 00:29N 44°41' E 037°49'0 0.0
2017-Oct-14 23:59N 44°41' E 037°49'0 0.0
2017-Oct-14 23:29N 44°41' E 037°49'0 0.1
2017-Oct-14 22:59N 44°41' E 037°49'0 0.0
2017-Oct-14 22:29N 44°41' E 037°49'0 0.0
2017-Oct-14 21:59N 44°41' E 037°49'0 0.0
2017-Oct-14 21:29N 44°41' E 037°49'0 0.0
2017-Oct-14 20:59N 44°41' E 037°49'0 0.0
2017-Oct-14 20:26N 44°41' E 037°49'0 0.1
2017-Oct-14 19:59N 44°41' E 037°49'0 0.0
2017-Oct-14 19:29N 44°41' E 037°49'0 0.0
2017-Oct-14 18:59N 44°41' E 037°49'0 0.1
2017-Oct-14 18:29N 44°41' E 037°49'0 0.0
2017-Oct-14 17:59N 44°41' E 037°49'0 0.0
2017-Oct-14 17:29N 44°41' E 037°49'0 0.0
2017-Oct-14 16:59N 44°41' E 037°49'0 0.0
2017-Oct-14 16:29N 44°41' E 037°49'0 0.0
2017-Oct-14 15:59N 44°41' E 037°49'0 0.0
2017-Oct-14 15:29N 44°41' E 037°49'0 0.0
2017-Oct-14 14:59N 44°41' E 037°49'0 0.0
2017-Oct-14 14:29N 44°41' E 037°49'0 0.0
2017-Oct-14 13:59N 44°41' E 037°49'0 0.0
2017-Oct-14 13:29N 44°41' E 037°49'0 0.0
2017-Oct-14 12:59N 44°41' E 037°49'0 0.0
2017-Oct-14 12:29N 44°41' E 037°49'0 0.0
2017-Oct-14 11:59N 44°41' E 037°49'0 0.0
2017-Oct-14 11:29N 44°41' E 037°49'0 0.0
2017-Oct-14 10:59N 44°41' E 037°49'0 0.1
2017-Oct-14 10:29N 44°41' E 037°49'0 0.0
2017-Oct-14 09:59N 44°41' E 037°49'0 0.0
2017-Oct-14 09:29N 44°41' E 037°49'0 0.1
2017-Oct-14 08:59N 44°41' E 037°49'0 0.0
2017-Oct-14 08:29N 44°41' E 037°49'0 0.0
2017-Oct-14 07:59N 44°41' E 037°49'0 0.0
2017-Oct-14 07:29N 44°41' E 037°49'0 0.2
2017-Oct-14 06:59N 44°41' E 037°49'0 0.1
2017-Oct-14 06:29N 44°41' E 037°49'0 0.0
2017-Oct-14 05:59N 44°41' E 037°49'0 0.0
2017-Oct-14 05:29N 44°41' E 037°49'0 0.0
2017-Oct-14 04:59N 44°41' E 037°49'0 0.0
2017-Oct-14 04:29N 44°41' E 037°49'0 0.0
2017-Oct-14 03:59N 44°41' E 037°49'0 0.1
2017-Oct-14 03:29N 44°41' E 037°49'0 0.1
2017-Oct-14 02:59N 44°41' E 037°49'0 0.1
2017-Oct-14 02:29N 44°41' E 037°49'0 0.0
2017-Oct-14 01:59N 44°41' E 037°49'0 0.0
2017-Oct-14 01:29N 44°41' E 037°49'0 0.0
2017-Oct-14 00:59N 44°41' E 037°49'0 0.0
2017-Oct-14 00:29N 44°41' E 037°49'0 0.0
2017-Oct-13 23:59N 44°41' E 037°49'0 0.0
2017-Oct-13 23:29N 44°41' E 037°49'0 0.0
2017-Oct-13 22:59N 44°41' E 037°49'0 0.0
2017-Oct-13 22:29N 44°41' E 037°49'0 0.0
2017-Oct-13 21:59N 44°41' E 037°49'0 0.0
2017-Oct-13 21:29N 44°41' E 037°49'0 0.0
2017-Oct-13 20:59N 44°41' E 037°49'0 0.0
2017-Oct-13 20:29N 44°41' E 037°49'0 0.0
2017-Oct-13 19:59N 44°41' E 037°49'0 0.0
2017-Oct-13 19:29N 44°41' E 037°49'0 0.0
2017-Oct-13 18:59N 44°41' E 037°49'0 0.0
2017-Oct-13 18:29N 44°41' E 037°49'0 0.0
2017-Oct-13 17:59N 44°41' E 037°49'0 0.0
2017-Oct-13 17:29N 44°41' E 037°49'0 0.0
2017-Oct-13 16:29N 44°41' E 037°49'0 0.0
2017-Oct-13 15:59N 44°41' E 037°49'0 0.0
2017-Oct-13 15:29N 44°41' E 037°49'0 0.0
2017-Oct-13 14:59N 44°41' E 037°49'0 0.0
2017-Oct-13 14:29N 44°41' E 037°49'0 0.0
2017-Oct-13 13:59N 44°41' E 037°49'0 0.0
2017-Oct-13 13:29N 44°41' E 037°49'0 0.0
2017-Oct-13 12:59N 44°41' E 037°49'0 0.0
2017-Oct-13 12:29N 44°41' E 037°49'0 0.0
2017-Oct-13 11:59N 44°41' E 037°49'0 0.0
2017-Oct-13 11:29N 44°41' E 037°49'0 0.0
2017-Oct-13 10:59N 44°41' E 037°49'0 0.0
2017-Oct-13 10:29N 44°41' E 037°49'0 0.0
2017-Oct-13 09:59N 44°41' E 037°49'0 0.0
2017-Oct-13 09:29N 44°41' E 037°49'0 0.0
2017-Oct-13 08:59N 44°41' E 037°49'0 0.0
2017-Oct-13 08:29N 44°41' E 037°49'0 0.0
2017-Oct-13 07:59N 44°41' E 037°49'0 0.0
2017-Oct-13 07:29N 44°41' E 037°49'0 0.0
2017-Oct-13 06:59N 44°41' E 037°49'0 0.0
2017-Oct-13 06:29N 44°41' E 037°49'0 0.0
2017-Oct-13 05:59N 44°41' E 037°49'0 0.0
2017-Oct-13 05:29N 44°41' E 037°49'0 0.0
2017-Oct-13 04:59N 44°41' E 037°49'0 0.0
2017-Oct-13 04:29N 44°41' E 037°49'0 0.0
2017-Oct-13 03:59N 44°41' E 037°49'0 0.0
2017-Oct-13 03:29N 44°41' E 037°49'0 0.1
2017-Oct-13 02:59N 44°41' E 037°49'2 3.2
2017-Oct-13 02:29N 44°43' E 037°48'1 1.5
2017-Oct-13 01:59N 44°43' E 037°49'0 0.0
2017-Oct-13 01:29N 44°43' E 037°49'0 0.0
2017-Oct-13 00:59N 44°43' E 037°49'0 0.0
2017-Oct-13 00:29N 44°43' E 037°49'0 0.0
2017-Oct-12 23:59N 44°43' E 037°49'0 0.0
2017-Oct-12 23:29N 44°43' E 037°49'0 0.0
2017-Oct-12 22:59N 44°43' E 037°49'0 0.3
2017-Oct-12 22:30N 44°43' E 037°49'2 3.1
2017-Oct-12 21:59N 44°42' E 037°49'0 0.1
2017-Oct-12 21:29N 44°42' E 037°49'0 0.0
2017-Oct-12 20:59N 44°42' E 037°49'  
Track history (hours):
 
Tides and Currents Weather Stations Pressure Air Temp Water Temp Dewpoint Dewpoint Depression Visibility Wind Speed Wind Dir Waves Ship Positions

Tigran Martirosyan

Last reported at 2017-Oct-22 20:50 UTC. Time now 2017-Oct-22 21:17 UTC.
Position N 44°36' E 037°39'.

Length 100 m; draft 4.4 m.

Type: Tanker. MMSI: 273332610.

Date/timePositionNaut miles runAvg speedWind from/ knotsBaromVisibWave heightAir tempDewpointWater temp
2017-Oct-22 20:50N 44°36' E 037°39'4 8.7
2017-Oct-22 20:20N 44°37' E 037°45'3 9.2
2017-Oct-22 19:59N 44°39' E 037°49'3 6.1
2017-Oct-22 19:29N 44°41' E 037°52'0 0.3
2017-Oct-22 18:56N 44°41' E 037°52'2 4.1
2017-Oct-22 18:29N 44°43' E 037°50'0 0.3
2017-Oct-22 17:59N 44°43' E 037°51'0 0.0
2017-Oct-22 17:29N 44°43' E 037°51'0 0.0
2017-Oct-22 16:59N 44°43' E 037°51'0 0.0
2017-Oct-22 16:29N 44°43' E 037°51'0 0.0
2017-Oct-22 15:59N 44°43' E 037°51'0 0.0
2017-Oct-22 15:29N 44°43' E 037°51'0 0.0
2017-Oct-22 14:59N 44°43' E 037°51'0 0.0
2017-Oct-22 14:26N 44°43' E 037°51'0 0.0
2017-Oct-22 13:59N 44°43' E 037°51'0 0.0
2017-Oct-22 13:29N 44°43' E 037°51'2 0.4
2017-Oct-22 08:29N 44°41' E 037°49'0 0.0
2017-Oct-22 07:53N 44°41' E 037°49'0 0.0
2017-Oct-22 07:29N 44°41' E 037°49'0 0.0
2017-Oct-22 06:59N 44°41' E 037°49'0 0.0
2017-Oct-22 06:29N 44°41' E 037°49'0 0.0
2017-Oct-22 05:59N 44°41' E 037°49'0 0.1
2017-Oct-22 05:29N 44°41' E 037°49'0 0.0
2017-Oct-22 04:59N 44°41' E 037°49'0 0.0
2017-Oct-22 04:29N 44°41' E 037°49'0 0.0
2017-Oct-22 03:59N 44°41' E 037°49'0 0.0
2017-Oct-22 03:29N 44°41' E 037°49'0 0.0
2017-Oct-22 02:59N 44°41' E 037°49'0 0.0
2017-Oct-22 02:29N 44°41' E 037°49'0 0.0
2017-Oct-22 01:59N 44°41' E 037°49'0 0.0
2017-Oct-22 01:29N 44°41' E 037°49'0 0.0
2017-Oct-22 00:59N 44°41' E 037°49'0 0.0
2017-Oct-22 00:29N 44°41' E 037°49'0 0.1
2017-Oct-21 23:59N 44°41' E 037°49'0 0.1
2017-Oct-21 23:29N 44°41' E 037°49'0 0.0
2017-Oct-21 22:59N 44°41' E 037°49'0 0.0
2017-Oct-21 22:29N 44°41' E 037°49'0 0.1
2017-Oct-21 21:59N 44°41' E 037°49'0 0.0
2017-Oct-21 21:29N 44°41' E 037°49'0 0.0
2017-Oct-21 20:59N 44°41' E 037°49'0 0.0
2017-Oct-21 20:23N 44°41' E 037°49'0 0.1
2017-Oct-21 19:56N 44°41' E 037°49'0 0.0
2017-Oct-21 19:29N 44°41' E 037°49'0 0.0
2017-Oct-21 18:59N 44°41' E 037°49'0 0.1
2017-Oct-21 18:29N 44°41' E 037°49'0 0.0
2017-Oct-21 17:59N 44°41' E 037°49'0 0.1
2017-Oct-21 17:29N 44°41' E 037°49'0 0.1
2017-Oct-21 16:59N 44°41' E 037°49'0 0.0
2017-Oct-21 16:29N 44°41' E 037°49'0 0.1
2017-Oct-21 15:56N 44°41' E 037°49'0 0.1
2017-Oct-21 15:29N 44°41' E 037°49'0 0.0
2017-Oct-21 14:59N 44°41' E 037°49'0 0.0
2017-Oct-21 13:59N 44°41' E 037°49'1 1.1
2017-Oct-21 13:29N 44°41' E 037°50'4 8.1
2017-Oct-21 12:59N 44°37' E 037°53'3 5.1
2017-Oct-21 12:29N 44°35' E 037°54'0 0.1
2017-Oct-21 11:56N 44°35' E 037°54'0 0.0
2017-Oct-21 11:29N 44°35' E 037°54'0 0.0
2017-Oct-21 10:50N 44°35' E 037°54'0 0.0
2017-Oct-21 10:29N 44°35' E 037°54'0 0.0
2017-Oct-21 09:59N 44°35' E 037°54'0 0.0
2017-Oct-21 09:29N 44°35' E 037°54'0 0.0
2017-Oct-21 08:59N 44°35' E 037°54'0 0.0
2017-Oct-21 08:29N 44°35' E 037°54'0 0.0
2017-Oct-21 07:59N 44°35' E 037°54'0 0.0
2017-Oct-21 07:29N 44°35' E 037°54'0 0.0
2017-Oct-21 06:59N 44°35' E 037°54'0 0.1
2017-Oct-21 06:29N 44°35' E 037°54'0 0.1
2017-Oct-21 05:59N 44°35' E 037°54'0 0.1
2017-Oct-21 05:29N 44°35' E 037°54'0 0.0
2017-Oct-21 04:47N 44°35' E 037°54'0 0.0
2017-Oct-21 03:35N 44°35' E 037°54'0 0.9
2017-Oct-21 03:23N 44°35' E 037°53'1 2.7
2017-Oct-21 02:59N 44°36' E 037°53'4 7.0
2017-Oct-21 02:29N 44°39' E 037°51'2 4.5
2017-Oct-21 01:59N 44°41' E 037°49'0 0.0
2017-Oct-21 01:29N 44°41' E 037°49'0 0.0
2017-Oct-21 00:59N 44°41' E 037°49'0 0.0
2017-Oct-21 00:29N 44°41' E 037°49'0 0.0
2017-Oct-20 23:59N 44°41' E 037°49'0 0.0
2017-Oct-20 23:29N 44°41' E 037°49'0 0.0
2017-Oct-20 22:59N 44°41' E 037°49'0 0.0
2017-Oct-20 22:29N 44°41' E 037°49'0 0.0
2017-Oct-20 21:59N 44°41' E 037°49'0 0.0
2017-Oct-20 21:29N 44°41' E 037°49'0 0.1
2017-Oct-20 20:59N 44°41' E 037°49'0 0.0
2017-Oct-20 20:29N 44°41' E 037°49'0 0.0
2017-Oct-20 19:59N 44°41' E 037°49'0 0.0
2017-Oct-20 19:29N 44°41' E 037°49'0 0.0
2017-Oct-20 18:59N 44°41' E 037°49'0 0.0
2017-Oct-20 18:29N 44°41' E 037°49'0 0.0
2017-Oct-20 17:59N 44°41' E 037°49'0 0.0
2017-Oct-20 17:29N 44°41' E 037°49'0 0.0
2017-Oct-20 16:59N 44°41' E 037°49'0 0.1
2017-Oct-20 16:29N 44°41' E 037°49'0 0.1
2017-Oct-20 15:59N 44°41' E 037°49'0 0.1
2017-Oct-20 15:29N 44°41' E 037°49'0 0.0
2017-Oct-20 14:59N 44°41' E 037°49'0 0.0
2017-Oct-20 13:59N 44°41' E 037°49'0 0.0
2017-Oct-20 13:29N 44°41' E 037°49'0 0.0
2017-Oct-20 12:59N 44°41' E 037°49'0 0.0
2017-Oct-20 12:29N 44°41' E 037°49'0 0.0
2017-Oct-20 11:59N 44°41' E 037°49'0 0.0
2017-Oct-20 11:29N 44°41' E 037°49'0 0.0
2017-Oct-20 10:59N 44°41' E 037°49'0 0.0
2017-Oct-20 10:29N 44°41' E 037°49'0 0.0
2017-Oct-20 09:59N 44°41' E 037°49'0 0.0
2017-Oct-20 09:29N 44°41' E 037°49'0 0.0
2017-Oct-20 08:59N 44°41' E 037°49'0 0.0
2017-Oct-20 08:29N 44°41' E 037°49'0 0.1
2017-Oct-20 07:59N 44°41' E 037°49'0 0.1
2017-Oct-20 07:29N 44°41' E 037°49'0 0.1
2017-Oct-20 06:59N 44°41' E 037°49'0 0.0
2017-Oct-20 06:29N 44°41' E 037°49'0 0.0
2017-Oct-20 05:59N 44°41' E 037°49'0 0.0
2017-Oct-20 05:29N 44°41' E 037°49'0 0.0
2017-Oct-20 04:59N 44°41' E 037°49'0 0.0
2017-Oct-20 04:29N 44°41' E 037°49'0 0.0
2017-Oct-20 03:59N 44°41' E 037°49'0 0.0
2017-Oct-20 03:29N 44°41' E 037°49'0 0.0
2017-Oct-20 02:59N 44°41' E 037°49'0 0.0
2017-Oct-20 02:29N 44°41' E 037°49'0 0.0
2017-Oct-20 01:59N 44°41' E 037°49'0 0.0
2017-Oct-20 01:29N 44°41' E 037°49'0 0.0
2017-Oct-20 00:56N 44°41' E 037°49'0 0.0
2017-Oct-20 00:29N 44°41' E 037°49'0 0.0
2017-Oct-19 23:59N 44°41' E 037°49'0 0.0
2017-Oct-19 23:29N 44°41' E 037°49'0 0.0
2017-Oct-19 22:59N 44°41' E 037°49'0 0.0
2017-Oct-19 22:29N 44°41' E 037°49'0 0.0
2017-Oct-19 21:59N 44°41' E 037°49'0 0.0
2017-Oct-19 21:29N 44°41' E 037°49'0 0.0
2017-Oct-19 20:59N 44°41' E 037°49'0 0.0
2017-Oct-19 20:29N 44°41' E 037°49'0 0.0
2017-Oct-19 19:59N 44°41' E 037°49'0 0.0
2017-Oct-19 19:29N 44°41' E 037°49'0 0.0
2017-Oct-19 18:59N 44°41' E 037°49'0 0.1
2017-Oct-19 18:26N 44°41' E 037°49'0 0.1
2017-Oct-19 17:59N 44°41' E 037°49'0 0.0
2017-Oct-19 17:29N 44°41' E 037°49'0 0.0
2017-Oct-19 16:59N 44°41' E 037°49'0 0.0
2017-Oct-19 16:29N 44°41' E 037°49'0 0.1
2017-Oct-19 15:59N 44°41' E 037°49'1 1.3
2017-Oct-19 15:29N 44°42' E 037°49'2 4.6
2017-Oct-19 14:59N 44°43' E 037°47'0 0.3
2017-Oct-19 14:29N 44°44' E 037°47'0 0.0
2017-Oct-19 13:59N 44°44' E 037°47'0 0.0
2017-Oct-19 13:26N 44°44' E 037°47'0 0.0
2017-Oct-19 12:59N 44°44' E 037°47'0 0.0
2017-Oct-19 12:29N 44°44' E 037°47'0 0.0
2017-Oct-19 11:56N 44°44' E 037°47'0 0.0
2017-Oct-19 11:29N 44°44' E 037°47'0 0.3
2017-Oct-19 10:59N 44°43' E 037°47'1 1.9
2017-Oct-19 10:29N 44°43' E 037°48'2 4.3
2017-Oct-19 09:59N 44°41' E 037°49'0 0.2
2017-Oct-19 09:29N 44°41' E 037°49'0 0.0
2017-Oct-19 08:56N 44°41' E 037°49'0 0.0
2017-Oct-19 08:29N 44°41' E 037°49'0 0.0
2017-Oct-19 07:59N 44°41' E 037°49'0 0.0
2017-Oct-19 07:29N 44°41' E 037°49'0 0.0
2017-Oct-19 06:59N 44°41' E 037°49'0 0.0
2017-Oct-19 06:29N 44°41' E 037°49'0 0.0
2017-Oct-19 05:59N 44°41' E 037°49'0 0.0
2017-Oct-19 05:29N 44°41' E 037°49'0 0.0
2017-Oct-19 04:59N 44°41' E 037°49'0 0.0
2017-Oct-19 04:29N 44°41' E 037°49'0 0.0
2017-Oct-19 03:29N 44°41' E 037°49'0 0.0
2017-Oct-19 02:59N 44°41' E 037°49'0 0.0
2017-Oct-19 02:29N 44°41' E 037°49'0 0.0
2017-Oct-19 01:59N 44°41' E 037°49'0 0.0
2017-Oct-19 01:29N 44°41' E 037°49'0 0.0
2017-Oct-19 00:59N 44°41' E 037°49'0 0.0
2017-Oct-19 00:29N 44°41' E 037°49'0 0.0
2017-Oct-18 23:26N 44°41' E 037°49'0 0.0
2017-Oct-18 22:59N 44°41' E 037°49'0 0.0
2017-Oct-18 22:29N 44°41' E 037°49'0 0.0
2017-Oct-18 21:59N 44°41' E 037°49'0 0.0
2017-Oct-18 21:29N 44°41' E 037°49'0 0.0
2017-Oct-18 20:59N 44°41' E 037°49'0 0.0
2017-Oct-18 20:29N 44°41' E 037°49'0 0.0
2017-Oct-18 19:59N 44°41' E 037°49'0 0.0
2017-Oct-18 19:26N 44°41' E 037°49'0 0.0
2017-Oct-18 18:59N 44°41' E 037°49'0 0.0
2017-Oct-18 18:29N 44°41' E 037°49'0 0.0
2017-Oct-18 17:59N 44°41' E 037°49'0 0.0
2017-Oct-18 17:29N 44°41' E 037°49'0 0.0
2017-Oct-18 16:59N 44°41' E 037°49'0 0.0
2017-Oct-18 16:29N 44°41' E 037°49'0 0.0
2017-Oct-18 15:59N 44°41' E 037°49'0 0.0
2017-Oct-18 15:29N 44°41' E 037°49'0 0.0
2017-Oct-18 13:59N 44°41' E 037°49'0 0.0
2017-Oct-18 13:29N 44°41' E 037°49'0 0.0
2017-Oct-18 12:59N 44°41' E 037°49'0 0.0
2017-Oct-18 12:29N 44°41' E 037°49'0 0.0
2017-Oct-18 11:59N 44°41' E 037°49'0 0.0
2017-Oct-18 11:29N 44°41' E 037°49'0 0.0
2017-Oct-18 10:59N 44°41' E 037°49'0 0.0
2017-Oct-18 10:29N 44°41' E 037°49'0 0.0
2017-Oct-18 09:59N 44°41' E 037°49'0 0.0
2017-Oct-18 09:29N 44°41' E 037°49'0 0.0
2017-Oct-18 08:59N 44°41' E 037°49'0 0.0
2017-Oct-18 08:29N 44°41' E 037°49'0 0.0
2017-Oct-18 07:59N 44°41' E 037°49'0 0.0
2017-Oct-18 07:29N 44°41' E 037°49'0 0.0
2017-Oct-18 06:59N 44°41' E 037°49'0 0.0
2017-Oct-18 06:29N 44°41' E 037°49'0 0.0
2017-Oct-18 05:59N 44°41' E 037°49'0 0.0
2017-Oct-18 05:29N 44°41' E 037°49'0 0.0
2017-Oct-18 04:59N 44°41' E 037°49'0 0.0
2017-Oct-18 04:29N 44°41' E 037°49'0 0.0
2017-Oct-18 03:59N 44°41' E 037°49'0 0.0
2017-Oct-18 03:29N 44°41' E 037°49'0 0.0
2017-Oct-18 02:59N 44°41' E 037°49'0 0.0
2017-Oct-18 02:29N 44°41' E 037°49'0 0.0
2017-Oct-18 01:59N 44°41' E 037°49'0 0.0
2017-Oct-18 01:29N 44°41' E 037°49'0 0.0
2017-Oct-18 00:59N 44°41' E 037°49'0 0.0
2017-Oct-18 00:29N 44°41' E 037°49'0 0.0
2017-Oct-17 23:59N 44°41' E 037°49'0 0.0
2017-Oct-17 23:29N 44°41' E 037°49'0 0.0
2017-Oct-17 22:59N 44°41' E 037°49'0 0.0
2017-Oct-17 22:29N 44°41' E 037°49'0 0.0
2017-Oct-17 21:59N 44°41' E 037°49'0 0.0
2017-Oct-17 21:29N 44°41' E 037°49'0 0.0
2017-Oct-17 20:56N 44°41' E 037°49'0 0.0
2017-Oct-17 20:29N 44°41' E 037°49'0 0.0
2017-Oct-17 19:59N 44°41' E 037°49'0 0.0
2017-Oct-17 19:29N 44°41' E 037°49'0 0.0
2017-Oct-17 18:59N 44°41' E 037°49'0 0.0
2017-Oct-17 18:29N 44°41' E 037°49'0 0.0
2017-Oct-17 17:59N 44°41' E 037°49'0 0.0
2017-Oct-17 17:29N 44°41' E 037°49'0 0.0
2017-Oct-17 16:59N 44°41' E 037°49'0 0.0
2017-Oct-17 16:29N 44°41' E 037°49'0 0.0
2017-Oct-17 15:59N 44°41' E 037°49'0 0.0
2017-Oct-17 15:29N 44°41' E 037°49'0 0.0
2017-Oct-17 14:59N 44°41' E 037°49'0 0.0
2017-Oct-17 14:29N 44°41' E 037°49'0 0.0
2017-Oct-17 13:59N 44°41' E 037°49'0 0.0
2017-Oct-17 13:29N 44°41' E 037°49'0 0.0
2017-Oct-17 12:59N 44°41' E 037°49'0 0.0
2017-Oct-17 12:29N 44°41' E 037°49'0 0.0
2017-Oct-17 11:59N 44°41' E 037°49'0 0.0
2017-Oct-17 11:29N 44°41' E 037°49'0 0.0
2017-Oct-17 10:59N 44°41' E 037°49'0 0.0
2017-Oct-17 10:29N 44°41' E 037°49'0 0.0
2017-Oct-17 09:59N 44°41' E 037°49'0 0.0
2017-Oct-17 09:29N 44°41' E 037°49'0 0.0
2017-Oct-17 08:59N 44°41' E 037°49'0 0.1
2017-Oct-17 08:29N 44°41' E 037°49'0 0.0
2017-Oct-17 07:59N 44°41' E 037°49'0 0.0
2017-Oct-17 07:29N 44°41' E 037°49'0 0.1
2017-Oct-17 06:59N 44°41' E 037°49'0 0.1
2017-Oct-17 06:29N 44°41' E 037°49'0 0.1
2017-Oct-17 05:59N 44°41' E 037°49'0 0.0
2017-Oct-17 05:29N 44°41' E 037°49'0 0.0
2017-Oct-17 04:59N 44°41' E 037°49'0 0.0
2017-Oct-17 04:29N 44°41' E 037°49'0 0.0
2017-Oct-17 03:59N 44°41' E 037°49'0 0.0
2017-Oct-17 03:14N 44°41' E 037°49'0 0.0
2017-Oct-17 02:59N 44°41' E 037°49'0 0.0
2017-Oct-17 02:29N 44°41' E 037°49'0 0.0
2017-Oct-17 01:59N 44°41' E 037°49'0 0.0
2017-Oct-17 01:29N 44°41' E 037°49'0 0.0
2017-Oct-17 00:56N 44°41' E 037°49'0 0.0
2017-Oct-17 00:29N 44°41' E 037°49'0 0.0
2017-Oct-16 23:59N 44°41' E 037°49'0 0.0
2017-Oct-16 23:29N 44°41' E 037°49'0 0.0
2017-Oct-16 22:59N 44°41' E 037°49'0 0.0
2017-Oct-16 22:29N 44°41' E 037°49'0 0.1
2017-Oct-16 21:59N 44°41' E 037°49'0 0.0
2017-Oct-16 21:29N 44°41' E 037°49'0 0.0
2017-Oct-16 20:56N 44°41' E 037°49'0 0.0
2017-Oct-16 20:29N 44°41' E 037°49'0 0.0
2017-Oct-16 19:59N 44°41' E 037°49'0 0.0
2017-Oct-16 19:29N 44°41' E 037°49'0 0.1
2017-Oct-16 18:59N 44°41' E 037°49'1 1.3
2017-Oct-16 18:08N 44°42' E 037°50'1 5.6
2017-Oct-16 17:59N 44°43' E 037°50'0 0.6
2017-Oct-16 17:29N 44°43' E 037°51'0 0.0
2017-Oct-16 16:59N 44°43' E 037°51'0 0.0
2017-Oct-16 16:29N 44°43' E 037°51'0 0.0
2017-Oct-16 15:59N 44°43' E 037°51'0 0.0
2017-Oct-16 15:29N 44°43' E 037°51'0 0.0
2017-Oct-16 14:59N 44°43' E 037°51'0 0.0
2017-Oct-16 13:59N 44°43' E 037°51'0 0.0
2017-Oct-16 13:29N 44°43' E 037°51'0 0.0
2017-Oct-16 12:59N 44°43' E 037°51'0 0.0
2017-Oct-16 12:29N 44°43' E 037°51'0 0.0
2017-Oct-16 11:59N 44°43' E 037°51'0 0.0
2017-Oct-16 11:29N 44°43' E 037°51'0 0.0
2017-Oct-16 10:59N 44°43' E 037°51'0 0.0
2017-Oct-16 10:29N 44°43' E 037°51'0 0.0
2017-Oct-16 09:59N 44°43' E 037°51'0 0.0
2017-Oct-16 09:29N 44°43' E 037°51'0 0.0
2017-Oct-16 08:56N 44°43' E 037°51'0 0.0
2017-Oct-16 08:29N 44°43' E 037°51'0 0.7
2017-Oct-16 07:59N 44°43' E 037°50'2 3.0
2017-Oct-16 07:29N 44°41' E 037°49'0 0.1
2017-Oct-16 06:59N 44°41' E 037°49'0 0.0
2017-Oct-16 06:29N 44°41' E 037°49'0 0.1
2017-Oct-16 05:59N 44°41' E 037°49'0 0.0
2017-Oct-16 05:29N 44°41' E 037°49'0 0.0
2017-Oct-16 04:59N 44°41' E 037°49'0 0.0
2017-Oct-16 04:29N 44°41' E 037°49'0 0.0
2017-Oct-16 03:59N 44°41' E 037°49'0 0.0
2017-Oct-16 03:29N 44°41' E 037°49'0 0.0
2017-Oct-16 02:59N 44°41' E 037°49'0 0.0
2017-Oct-16 02:29N 44°41' E 037°49'0 0.0
2017-Oct-16 01:59N 44°41' E 037°49'0 0.0
2017-Oct-16 01:29N 44°41' E 037°49'0 0.0
2017-Oct-16 00:59N 44°41' E 037°49'0 0.0
2017-Oct-16 00:29N 44°41' E 037°49'0 0.1
2017-Oct-15 23:59N 44°41' E 037°49'0 0.0
2017-Oct-15 23:29N 44°41' E 037°49'0 0.0
2017-Oct-15 22:59N 44°41' E 037°49'0 0.0
2017-Oct-15 22:29N 44°41' E 037°49'0 0.0
2017-Oct-15 21:59N 44°41' E 037°49'0 0.0
2017-Oct-15 21:29N 44°41' E 037°49'0 0.2
2017-Oct-15 20:59N 44°41' E 037°49'0 0.1
2017-Oct-15 20:29N 44°41' E 037°49'0 0.1
2017-Oct-15 19:59N 44°41' E 037°49'0 0.1
2017-Oct-15 19:29N 44°41' E 037°49'0 0.1
2017-Oct-15 18:59N 44°41' E 037°49'0 0.0
2017-Oct-15 18:29N 44°41' E 037°49'0 0.1
2017-Oct-15 17:59N 44°41' E 037°49'0 0.0
2017-Oct-15 17:29N 44°41' E 037°49'0 0.0
2017-Oct-15 16:59N 44°41' E 037°49'0 0.0
2017-Oct-15 16:29N 44°41' E 037°49'0 0.0
2017-Oct-15 15:59N 44°41' E 037°49'0 0.0
2017-Oct-15 15:29N 44°41' E 037°49'0 0.0
2017-Oct-15 14:59N 44°41' E 037°49'0 0.0
2017-Oct-15 13:59N 44°41' E 037°49'0 0.0
2017-Oct-15 13:29N 44°41' E 037°49'0 0.0
2017-Oct-15 12:59N 44°41' E 037°49'0 0.0
2017-Oct-15 12:29N 44°41' E 037°49'0 0.0
2017-Oct-15 11:59N 44°41' E 037°49'0 0.0
2017-Oct-15 11:29N 44°41' E 037°49'0 0.0
2017-Oct-15 10:59N 44°41' E 037°49'0 0.1
2017-Oct-15 10:29N 44°41' E 037°49'0 0.0
2017-Oct-15 09:59N 44°41' E 037°49'0 0.0
2017-Oct-15 09:29N 44°41' E 037°49'0 0.0
2017-Oct-15 08:59N 44°41' E 037°49'0 0.1
2017-Oct-15 08:26N 44°41' E 037°49'0 0.0
2017-Oct-15 07:59N 44°41' E 037°49'0 0.0
2017-Oct-15 07:29N 44°41' E 037°49'0 0.0
2017-Oct-15 06:59N 44°41' E 037°49'0 0.0
2017-Oct-15 06:29N 44°41' E 037°49'0 0.0
2017-Oct-15 05:59N 44°41' E 037°49'0 0.1
2017-Oct-15 05:29N 44°41' E 037°49'0 0.0
2017-Oct-15 04:59N 44°41' E 037°49'0 0.0
2017-Oct-15 04:29N 44°41' E 037°49'0 0.0
2017-Oct-15 03:59N 44°41' E 037°49'0 0.0
2017-Oct-15 03:29N 44°41' E 037°49'0 0.0
2017-Oct-15 02:59N 44°41' E 037°49'0 0.0
2017-Oct-15 02:29N 44°41' E 037°49'0 0.0
2017-Oct-15 01:59N 44°41' E 037°49'0 0.0
2017-Oct-15 01:29N 44°41' E 037°49'0 0.0
2017-Oct-15 00:59N 44°41' E 037°49'0 0.0
2017-Oct-15 00:29N 44°41' E 037°49'0 0.0
2017-Oct-14 23:59N 44°41' E 037°49'0 0.0
2017-Oct-14 23:29N 44°41' E 037°49'0 0.1
2017-Oct-14 22:59N 44°41' E 037°49'0 0.0
2017-Oct-14 22:29N 44°41' E 037°49'0 0.0
2017-Oct-14 21:59N 44°41' E 037°49'0 0.0
2017-Oct-14 21:29N 44°41' E 037°49'0 0.0
2017-Oct-14 20:59N 44°41' E 037°49'0 0.0
2017-Oct-14 20:26N 44°41' E 037°49'0 0.1
2017-Oct-14 19:59N 44°41' E 037°49'0 0.0
2017-Oct-14 19:29N 44°41' E 037°49'0 0.0
2017-Oct-14 18:59N 44°41' E 037°49'0 0.1
2017-Oct-14 18:29N 44°41' E 037°49'0 0.0
2017-Oct-14 17:59N 44°41' E 037°49'0 0.0
2017-Oct-14 17:29N 44°41' E 037°49'0 0.0
2017-Oct-14 16:59N 44°41' E 037°49'0 0.0
2017-Oct-14 16:29N 44°41' E 037°49'0 0.0
2017-Oct-14 15:59N 44°41' E 037°49'0 0.0
2017-Oct-14 15:29N 44°41' E 037°49'0 0.0
2017-Oct-14 14:59N 44°41' E 037°49'0 0.0
2017-Oct-14 14:29N 44°41' E 037°49'0 0.0
2017-Oct-14 13:59N 44°41' E 037°49'0 0.0
2017-Oct-14 13:29N 44°41' E 037°49'0 0.0
2017-Oct-14 12:59N 44°41' E 037°49'0 0.0
2017-Oct-14 12:29N 44°41' E 037°49'0 0.0
2017-Oct-14 11:59N 44°41' E 037°49'0 0.0
2017-Oct-14 11:29N 44°41' E 037°49'0 0.0
2017-Oct-14 10:59N 44°41' E 037°49'0 0.1
2017-Oct-14 10:29N 44°41' E 037°49'0 0.0
2017-Oct-14 09:59N 44°41' E 037°49'0 0.0
2017-Oct-14 09:29N 44°41' E 037°49'0 0.1
2017-Oct-14 08:59N 44°41' E 037°49'0 0.0
2017-Oct-14 08:29N 44°41' E 037°49'0 0.0
2017-Oct-14 07:59N 44°41' E 037°49'0 0.0
2017-Oct-14 07:29N 44°41' E 037°49'0 0.2
2017-Oct-14 06:59N 44°41' E 037°49'0 0.1
2017-Oct-14 06:29N 44°41' E 037°49'0 0.0
2017-Oct-14 05:59N 44°41' E 037°49'0 0.0
2017-Oct-14 05:29N 44°41' E 037°49'0 0.0
2017-Oct-14 04:59N 44°41' E 037°49'0 0.0
2017-Oct-14 04:29N 44°41' E 037°49'0 0.0
2017-Oct-14 03:59N 44°41' E 037°49'0 0.1
2017-Oct-14 03:29N 44°41' E 037°49'0 0.1
2017-Oct-14 02:59N 44°41' E 037°49'0 0.1
2017-Oct-14 02:29N 44°41' E 037°49'0 0.0
2017-Oct-14 01:59N 44°41' E 037°49'0 0.0
2017-Oct-14 01:29N 44°41' E 037°49'0 0.0
2017-Oct-14 00:59N 44°41' E 037°49'0 0.0
2017-Oct-14 00:29N 44°41' E 037°49'0 0.0
2017-Oct-13 23:59N 44°41' E 037°49'0 0.0
2017-Oct-13 23:29N 44°41' E 037°49'0 0.0
2017-Oct-13 22:59N 44°41' E 037°49'0 0.0
2017-Oct-13 22:29N 44°41' E 037°49'0 0.0
2017-Oct-13 21:59N 44°41' E 037°49'0 0.0
2017-Oct-13 21:29N 44°41' E 037°49'0 0.0
2017-Oct-13 20:59N 44°41' E 037°49'0 0.0
2017-Oct-13 20:29N 44°41' E 037°49'0 0.0
2017-Oct-13 19:59N 44°41' E 037°49'0 0.0
2017-Oct-13 19:29N 44°41' E 037°49'0 0.0
2017-Oct-13 18:59N 44°41' E 037°49'0 0.0
2017-Oct-13 18:29N 44°41' E 037°49'0 0.0
2017-Oct-13 17:59N 44°41' E 037°49'0 0.0
2017-Oct-13 17:29N 44°41' E 037°49'0 0.0
2017-Oct-13 16:29N 44°41' E 037°49'0 0.0
2017-Oct-13 15:59N 44°41' E 037°49'0 0.0
2017-Oct-13 15:29N 44°41' E 037°49'0 0.0
2017-Oct-13 14:59N 44°41' E 037°49'0 0.0
2017-Oct-13 14:29N 44°41' E 037°49'0 0.0
2017-Oct-13 13:59N 44°41' E 037°49'0 0.0
2017-Oct-13 13:29N 44°41' E 037°49'0 0.0
2017-Oct-13 12:59N 44°41' E 037°49'0 0.0
2017-Oct-13 12:29N 44°41' E 037°49'0 0.0
2017-Oct-13 11:59N 44°41' E 037°49'0 0.0
2017-Oct-13 11:29N 44°41' E 037°49'0 0.0
2017-Oct-13 10:59N 44°41' E 037°49'0 0.0
2017-Oct-13 10:29N 44°41' E 037°49'0 0.0
2017-Oct-13 09:59N 44°41' E 037°49'0 0.0
2017-Oct-13 09:29N 44°41' E 037°49'0 0.0
2017-Oct-13 08:59N 44°41' E 037°49'0 0.0
2017-Oct-13 08:29N 44°41' E 037°49'0 0.0
2017-Oct-13 07:59N 44°41' E 037°49'0 0.0
2017-Oct-13 07:29N 44°41' E 037°49'0 0.0
2017-Oct-13 06:59N 44°41' E 037°49'0 0.0
2017-Oct-13 06:29N 44°41' E 037°49'0 0.0
2017-Oct-13 05:59N 44°41' E 037°49'0 0.0
2017-Oct-13 05:29N 44°41' E 037°49'0 0.0
2017-Oct-13 04:59N 44°41' E 037°49'0 0.0
2017-Oct-13 04:29N 44°41' E 037°49'0 0.0
2017-Oct-13 03:59N 44°41' E 037°49'0 0.0
2017-Oct-13 03:29N 44°41' E 037°49'0 0.1
2017-Oct-13 02:59N 44°41' E 037°49'2 3.2
2017-Oct-13 02:29N 44°43' E 037°48'1 1.5
2017-Oct-13 01:59N 44°43' E 037°49'0 0.0
2017-Oct-13 01:29N 44°43' E 037°49'0 0.0
2017-Oct-13 00:59N 44°43' E 037°49'0 0.0
2017-Oct-13 00:29N 44°43' E 037°49'0 0.0
2017-Oct-12 23:59N 44°43' E 037°49'0 0.0
2017-Oct-12 23:29N 44°43' E 037°49'0 0.0
2017-Oct-12 22:59N 44°43' E 037°49'0 0.3
2017-Oct-12 22:30N 44°43' E 037°49'2 3.1
2017-Oct-12 21:59N 44°42' E 037°49'0 0.1
2017-Oct-12 21:29N 44°42' E 037°49'0 0.0
2017-Oct-12 20:59N 44°42' E 037°49'  

Dump ship's entire track history